sensor_id;sensor_type;location;lat;lon;timestamp;pressure;altitude;pressure_sealevel;temperature;humidity
69239;BME280;56349;51.816;-0.026;2023-02-21T00:00:23;101497.81;;;25.38;28.25
69239;BME280;56349;51.816;-0.026;2023-02-21T00:02:49;101498.66;;;25.61;28.46
69239;BME280;56349;51.816;-0.026;2023-02-21T00:05:15;101494.51;;;25.51;28.70
69239;BME280;56349;51.816;-0.026;2023-02-21T00:07:41;101491.02;;;25.19;28.98
69239;BME280;56349;51.816;-0.026;2023-02-21T00:10:07;101493.22;;;25.19;29.24
69239;BME280;56349;51.816;-0.026;2023-02-21T00:12:32;101495.36;;;24.92;29.48
69239;BME280;56349;51.816;-0.026;2023-02-21T00:14:58;101496.95;;;24.66;29.74
69239;BME280;56349;51.816;-0.026;2023-02-21T00:17:24;101495.49;;;24.59;30.00
69239;BME280;56349;51.816;-0.026;2023-02-21T00:19:50;101498.82;;;24.09;30.27
69239;BME280;56349;51.816;-0.026;2023-02-21T00:22:16;101497.04;;;24.30;30.51
69239;BME280;56349;51.816;-0.026;2023-02-21T00:24:42;101493.47;;;24.04;30.75
69239;BME280;56349;51.816;-0.026;2023-02-21T00:27:08;101491.18;;;23.81;31.01
69239;BME280;56349;51.816;-0.026;2023-02-21T00:29:34;101489.17;;;23.84;31.26
69239;BME280;56349;51.816;-0.026;2023-02-21T00:32:00;101491.40;;;23.38;31.50
69239;BME280;56349;51.816;-0.026;2023-02-21T00:34:26;101489.59;;;23.46;31.68
69239;BME280;56349;51.816;-0.026;2023-02-21T00:36:52;101487.36;;;23.27;31.89
69239;BME280;56349;51.816;-0.026;2023-02-21T00:39:18;101490.07;;;23.31;32.09
69239;BME280;56349;51.816;-0.026;2023-02-21T00:41:44;101485.91;;;23.11;32.29
69239;BME280;56349;51.816;-0.026;2023-02-21T00:44:10;101489.38;;;22.93;32.52
69239;BME280;56349;51.816;-0.026;2023-02-21T00:46:35;101490.76;;;22.76;32.75
69239;BME280;56349;51.816;-0.026;2023-02-21T00:49:01;101484.14;;;22.63;32.88
69239;BME280;56349;51.816;-0.026;2023-02-21T00:51:25;101482.95;;;22.48;33.06
69239;BME280;56349;51.816;-0.026;2023-02-21T00:53:52;101479.23;;;22.82;33.24
69239;BME280;56349;51.816;-0.026;2023-02-21T00:56:17;101474.77;;;22.47;33.37
69239;BME280;56349;51.816;-0.026;2023-02-21T00:58:42;101473.14;;;22.34;33.56
69239;BME280;56349;51.816;-0.026;2023-02-21T01:01:08;101473.24;;;22.24;33.78
69239;BME280;56349;51.816;-0.026;2023-02-21T01:03:34;101469.70;;;22.38;33.96
69239;BME280;56349;51.816;-0.026;2023-02-21T01:06:00;101465.07;;;22.13;34.13
69239;BME280;56349;51.816;-0.026;2023-02-21T01:08:26;101461.73;;;22.40;34.22
69239;BME280;56349;51.816;-0.026;2023-02-21T01:10:52;101456.65;;;22.49;34.25
69239;BME280;56349;51.816;-0.026;2023-02-21T01:13:18;101448.38;;;22.14;34.22
69239;BME280;56349;51.816;-0.026;2023-02-21T01:15:44;101443.59;;;22.29;34.13
69239;BME280;56349;51.816;-0.026;2023-02-21T01:18:10;101439.34;;;22.47;33.97
69239;BME280;56349;51.816;-0.026;2023-02-21T01:20:36;101432.43;;;22.45;33.82
69239;BME280;56349;51.816;-0.026;2023-02-21T01:23:02;101431.30;;;22.89;33.62
69239;BME280;56349;51.816;-0.026;2023-02-21T01:25:27;101426.45;;;23.10;33.43
69239;BME280;56349;51.816;-0.026;2023-02-21T01:27:53;101421.18;;;23.09;33.23
69239;BME280;56349;51.816;-0.026;2023-02-21T01:30:18;101417.02;;;23.31;33.01
69239;BME280;56349;51.816;-0.026;2023-02-21T01:32:44;101416.52;;;23.53;32.74
69239;BME280;56349;51.816;-0.026;2023-02-21T01:35:10;101417.40;;;23.47;32.50
69239;BME280;56349;51.816;-0.026;2023-02-21T01:37:38;101418.60;;;23.69;32.28
69239;BME280;56349;51.816;-0.026;2023-02-21T01:40:02;101415.58;;;23.86;32.07
69239;BME280;56349;51.816;-0.026;2023-02-21T01:42:28;101412.02;;;24.03;31.85
69239;BME280;56349;51.816;-0.026;2023-02-21T01:47:20;101411.29;;;23.96;31.41
69239;BME280;56349;51.816;-0.026;2023-02-21T01:49:45;101411.31;;;24.59;31.22
69239;BME280;56349;51.816;-0.026;2023-02-21T01:52:11;101408.02;;;24.28;31.05
69239;BME280;56349;51.816;-0.026;2023-02-21T01:54:41;101400.79;;;24.42;30.87
69239;BME280;56349;51.816;-0.026;2023-02-21T01:57:03;101400.86;;;24.55;30.67
69239;BME280;56349;51.816;-0.026;2023-02-21T01:59:28;101408.81;;;24.69;30.52
69239;BME280;56349;51.816;-0.026;2023-02-21T02:01:58;101409.38;;;24.79;30.36
69239;BME280;56349;51.816;-0.026;2023-02-21T02:04:19;101412.88;;;24.62;30.21
69239;BME280;56349;51.816;-0.026;2023-02-21T02:06:46;101412.14;;;24.71;30.05
69239;BME280;56349;51.816;-0.026;2023-02-21T02:09:15;101414.03;;;24.80;29.90
69239;BME280;56349;51.816;-0.026;2023-02-21T02:11:59;101418.32;;;24.89;29.79
69239;BME280;56349;51.816;-0.026;2023-02-21T02:14:17;101418.50;;;25.22;29.71
69239;BME280;56349;51.816;-0.026;2023-02-21T02:16:34;101420.35;;;25.30;29.61
69239;BME280;56349;51.816;-0.026;2023-02-21T02:19:04;101417.81;;;25.38;29.50
69239;BME280;56349;51.816;-0.026;2023-02-21T02:21:31;101415.65;;;25.18;29.33
69239;BME280;56349;51.816;-0.026;2023-02-21T02:23:57;101414.63;;;25.00;29.18
69239;BME280;56349;51.816;-0.026;2023-02-21T02:28:50;101405.59;;;25.40;29.05
69239;BME280;56349;51.816;-0.026;2023-02-21T02:31:15;101401.98;;;25.26;29.02
69239;BME280;56349;51.816;-0.026;2023-02-21T02:35:55;101398.36;;;24.89;29.23
69239;BME280;56349;51.816;-0.026;2023-02-21T02:38:24;101400.38;;;24.70;29.32
69239;BME280;56349;51.816;-0.026;2023-02-21T02:40:50;101395.75;;;24.68;29.44
69239;BME280;56349;51.816;-0.026;2023-02-21T02:43:19;101402.47;;;24.20;29.62
69239;BME280;56349;51.816;-0.026;2023-02-21T02:45:42;101397.85;;;24.15;29.85
69239;BME280;56349;51.816;-0.026;2023-02-21T02:48:09;101399.12;;;23.88;30.07
69239;BME280;56349;51.816;-0.026;2023-02-21T02:50:29;101396.43;;;23.85;30.31
69239;BME280;56349;51.816;-0.026;2023-02-21T02:52:55;101398.05;;;23.87;30.52
69239;BME280;56349;51.816;-0.026;2023-02-21T02:55:24;101394.27;;;23.37;30.76
69239;BME280;56349;51.816;-0.026;2023-02-21T02:57:44;101386.28;;;23.39;30.99
69239;BME280;56349;51.816;-0.026;2023-02-21T03:00:11;101384.11;;;23.15;31.21
69239;BME280;56349;51.816;-0.026;2023-02-21T03:02:48;101376.79;;;23.14;31.43
69239;BME280;56349;51.816;-0.026;2023-02-21T03:07:33;101376.39;;;22.72;31.89
69239;BME280;56349;51.816;-0.026;2023-02-21T03:09:56;101377.97;;;22.53;32.10
69239;BME280;56349;51.816;-0.026;2023-02-21T03:12:21;101374.81;;;22.36;32.30
69239;BME280;56349;51.816;-0.026;2023-02-21T03:14:49;101372.02;;;22.42;32.53
69239;BME280;56349;51.816;-0.026;2023-02-21T03:17:10;101372.84;;;21.97;32.73
69239;BME280;56349;51.816;-0.026;2023-02-21T03:19:36;101369.94;;;22.07;32.91
69239;BME280;56349;51.816;-0.026;2023-02-21T03:22:01;101368.76;;;21.93;33.07
69239;BME280;56349;51.816;-0.026;2023-02-21T03:24:25;101366.59;;;21.99;33.27
69239;BME280;56349;51.816;-0.026;2023-02-21T03:26:52;101363.15;;;21.85;33.44
69239;BME280;56349;51.816;-0.026;2023-02-21T03:29:16;101358.64;;;21.70;33.64
69239;BME280;56349;51.816;-0.026;2023-02-21T03:31:44;101360.29;;;21.55;33.82
69239;BME280;56349;51.816;-0.026;2023-02-21T03:34:09;101358.21;;;21.63;33.99
69239;BME280;56349;51.816;-0.026;2023-02-21T03:36:33;101361.25;;;21.49;34.15
69239;BME280;56349;51.816;-0.026;2023-02-21T03:38:58;101366.24;;;21.15;34.29
69239;BME280;56349;51.816;-0.026;2023-02-21T03:41:24;101366.22;;;21.25;34.45
69239;BME280;56349;51.816;-0.026;2023-02-21T03:43:50;101370.02;;;21.13;34.60
69239;BME280;56349;51.816;-0.026;2023-02-21T03:46:16;101371.37;;;21.02;34.74
69239;BME280;56349;51.816;-0.026;2023-02-21T03:48:42;101372.91;;;20.94;34.85
69239;BME280;56349;51.816;-0.026;2023-02-21T03:51:07;101371.97;;;20.85;34.95
69239;BME280;56349;51.816;-0.026;2023-02-21T03:53:34;101372.45;;;21.03;35.05
69239;BME280;56349;51.816;-0.026;2023-02-21T03:56:00;101372.26;;;20.95;35.18
69239;BME280;56349;51.816;-0.026;2023-02-21T03:58:25;101371.59;;;20.86;35.29
69239;BME280;56349;51.816;-0.026;2023-02-21T04:00:51;101369.22;;;20.80;35.39
69239;BME280;56349;51.816;-0.026;2023-02-21T04:03:16;101369.33;;;20.74;35.46
69239;BME280;56349;51.816;-0.026;2023-02-21T04:05:41;101371.19;;;20.67;35.56
69239;BME280;56349;51.816;-0.026;2023-02-21T04:08:06;101370.10;;;20.60;35.66
69239;BME280;56349;51.816;-0.026;2023-02-21T04:10:31;101369.27;;;20.54;35.74
69239;BME280;56349;51.816;-0.026;2023-02-21T04:12:56;101368.68;;;20.47;35.84
69239;BME280;56349;51.816;-0.026;2023-02-21T04:15:23;101367.98;;;20.41;35.92
69239;BME280;56349;51.816;-0.026;2023-02-21T04:17:48;101362.40;;;20.35;35.98
69239;BME280;56349;51.816;-0.026;2023-02-21T04:20:14;101361.06;;;20.52;36.05
69239;BME280;56349;51.816;-0.026;2023-02-21T04:22:39;101357.93;;;20.24;36.13
69239;BME280;56349;51.816;-0.026;2023-02-21T04:25:04;101357.85;;;20.41;36.21
69239;BME280;56349;51.816;-0.026;2023-02-21T04:27:29;101353.82;;;20.14;36.26
69239;BME280;56349;51.816;-0.026;2023-02-21T04:29:55;101354.59;;;20.53;36.35
69239;BME280;56349;51.816;-0.026;2023-02-21T04:32:21;101351.97;;;20.29;36.46
69239;BME280;56349;51.816;-0.026;2023-02-21T04:34:48;101349.23;;;20.09;36.54
69239;BME280;56349;51.816;-0.026;2023-02-21T04:37:14;101347.84;;;20.17;36.56
69239;BME280;56349;51.816;-0.026;2023-02-21T04:39:40;101351.13;;;20.31;36.49
69239;BME280;56349;51.816;-0.026;2023-02-21T04:42:06;101356.15;;;20.48;36.41
69239;BME280;56349;51.816;-0.026;2023-02-21T04:44:32;101354.21;;;20.38;36.22
69239;BME280;56349;51.816;-0.026;2023-02-21T04:46:58;101353.25;;;20.83;36.02
69239;BME280;56349;51.816;-0.026;2023-02-21T04:49:24;101353.35;;;20.71;35.80
69239;BME280;56349;51.816;-0.026;2023-02-21T04:51:50;101350.53;;;20.80;35.64
69239;BME280;56349;51.816;-0.026;2023-02-21T04:54:15;101350.74;;;20.86;35.50
69239;BME280;56349;51.816;-0.026;2023-02-21T04:56:40;101346.11;;;20.87;35.40
69239;BME280;56349;51.816;-0.026;2023-02-21T04:59:06;101348.25;;;21.12;35.37
69239;BME280;56349;51.816;-0.026;2023-02-21T05:01:33;101349.49;;;20.82;35.36
69239;BME280;56349;51.816;-0.026;2023-02-21T05:03:59;101350.77;;;20.77;35.36
69239;BME280;56349;51.816;-0.026;2023-02-21T05:06:25;101353.56;;;21.01;35.37
69239;BME280;56349;51.816;-0.026;2023-02-21T05:08:49;101354.84;;;20.70;35.44
69239;BME280;56349;51.816;-0.026;2023-02-21T05:11:17;101352.51;;;20.91;35.56
69239;BME280;56349;51.816;-0.026;2023-02-21T05:13:41;101350.49;;;20.83;35.75
69239;BME280;56349;51.816;-0.026;2023-02-21T05:16:07;101354.56;;;20.77;35.95
69239;BME280;56349;51.816;-0.026;2023-02-21T05:18:31;101359.09;;;20.73;36.17
69239;BME280;56349;51.816;-0.026;2023-02-21T05:20:58;101362.97;;;20.70;36.38
69239;BME280;56349;51.816;-0.026;2023-02-21T05:23:23;101363.46;;;20.69;36.56
69239;BME280;56349;51.816;-0.026;2023-02-21T05:25:49;101362.09;;;20.69;36.74
69239;BME280;56349;51.816;-0.026;2023-02-21T05:28:15;101363.99;;;20.70;36.93
69239;BME280;56349;51.816;-0.026;2023-02-21T05:30:41;101365.03;;;20.70;37.11
69239;BME280;56349;51.816;-0.026;2023-02-21T05:33:07;101367.12;;;20.71;37.29
69239;BME280;56349;51.816;-0.026;2023-02-21T05:35:32;101364.44;;;20.73;37.45
69239;BME280;56349;51.816;-0.026;2023-02-21T05:37:58;101363.00;;;20.78;37.55
69239;BME280;56349;51.816;-0.026;2023-02-21T05:40:25;101360.94;;;20.81;37.67
69239;BME280;56349;51.816;-0.026;2023-02-21T05:42:51;101359.91;;;20.83;37.79
69239;BME280;56349;51.816;-0.026;2023-02-21T05:45:17;101357.53;;;20.87;37.89
69239;BME280;56349;51.816;-0.026;2023-02-21T05:47:42;101358.62;;;20.93;37.96
69239;BME280;56349;51.816;-0.026;2023-02-21T05:50:08;101354.06;;;20.96;38.01
69239;BME280;56349;51.816;-0.026;2023-02-21T05:52:35;101349.77;;;21.00;38.11
69239;BME280;56349;51.816;-0.026;2023-02-21T05:55:01;101345.90;;;21.01;38.21
69239;BME280;56349;51.816;-0.026;2023-02-21T05:57:27;101345.00;;;21.04;38.27
69239;BME280;56349;51.816;-0.026;2023-02-21T05:59:53;101347.50;;;21.06;38.36
69239;BME280;56349;51.816;-0.026;2023-02-21T06:02:19;101348.51;;;21.11;38.37
69239;BME280;56349;51.816;-0.026;2023-02-21T06:04:45;101348.36;;;20.93;38.33
69239;BME280;56349;51.816;-0.026;2023-02-21T06:07:11;101341.62;;;21.22;38.36
69239;BME280;56349;51.816;-0.026;2023-02-21T06:09:37;101343.18;;;21.24;38.41
69239;BME280;56349;51.816;-0.026;2023-02-21T06:12:03;101344.60;;;21.28;38.42
69239;BME280;56349;51.816;-0.026;2023-02-21T06:14:28;101343.40;;;21.31;38.45
69239;BME280;56349;51.816;-0.026;2023-02-21T06:16:54;101343.35;;;21.08;38.45
69239;BME280;56349;51.816;-0.026;2023-02-21T06:19:19;101346.52;;;21.40;38.43
69239;BME280;56349;51.816;-0.026;2023-02-21T06:21:46;101348.09;;;21.18;38.40
69239;BME280;56349;51.816;-0.026;2023-02-21T06:24:12;101348.11;;;21.21;38.41
69239;BME280;56349;51.816;-0.026;2023-02-21T06:26:37;101348.15;;;21.51;38.38
69239;BME280;56349;51.816;-0.026;2023-02-21T06:29:03;101346.78;;;21.54;38.35
69239;BME280;56349;51.816;-0.026;2023-02-21T06:31:28;101346.07;;;21.31;38.30
69239;BME280;56349;51.816;-0.026;2023-02-21T06:33:54;101341.51;;;21.32;38.24
69239;BME280;56349;51.816;-0.026;2023-02-21T06:36:22;101340.50;;;21.61;38.15
69239;BME280;56349;51.816;-0.026;2023-02-21T06:38:48;101342.96;;;21.35;38.07
69239;BME280;56349;51.816;-0.026;2023-02-21T06:41:14;101339.52;;;21.37;37.99
69239;BME280;56349;51.816;-0.026;2023-02-21T06:43:38;101340.20;;;21.38;37.89
69239;BME280;56349;51.816;-0.026;2023-02-21T06:46:04;101338.51;;;21.64;37.85
69239;BME280;56349;51.816;-0.026;2023-02-21T06:48:30;101331.36;;;21.38;37.77
69239;BME280;56349;51.816;-0.026;2023-02-21T06:50:55;101332.49;;;21.38;37.69
69239;BME280;56349;51.816;-0.026;2023-02-21T06:53:21;101331.05;;;21.63;37.63
69239;BME280;56349;51.816;-0.026;2023-02-21T06:55:47;101328.30;;;21.37;37.56
69239;BME280;56349;51.816;-0.026;2023-02-21T06:58:13;101333.03;;;21.35;37.51
69239;BME280;56349;51.816;-0.026;2023-02-21T07:00:39;101337.50;;;21.33;37.46
69239;BME280;56349;51.816;-0.026;2023-02-21T07:03:04;101337.58;;;21.32;37.40
69239;BME280;56349;51.816;-0.026;2023-02-21T07:05:30;101335.51;;;21.56;37.35
69239;BME280;56349;51.816;-0.026;2023-02-21T07:07:55;101334.37;;;21.26;37.33
69239;BME280;56349;51.816;-0.026;2023-02-21T07:10:20;101334.51;;;21.49;37.30
69239;BME280;56349;51.816;-0.026;2023-02-21T07:12:46;101335.36;;;21.47;37.26
69239;BME280;56349;51.816;-0.026;2023-02-21T07:15:11;101332.19;;;21.19;37.22
69239;BME280;56349;51.816;-0.026;2023-02-21T07:17:36;101333.91;;;21.45;37.16
69239;BME280;56349;51.816;-0.026;2023-02-21T07:20:02;101334.39;;;21.42;37.13
69239;BME280;56349;51.816;-0.026;2023-02-21T07:22:27;101334.61;;;21.12;37.11
69239;BME280;56349;51.816;-0.026;2023-02-21T07:24:53;101337.65;;;21.09;37.07
69239;BME280;56349;51.816;-0.026;2023-02-21T07:27:19;101337.42;;;21.06;36.98
69239;BME280;56349;51.816;-0.026;2023-02-21T07:29:45;101339.20;;;21.05;36.91
69239;BME280;56349;51.816;-0.026;2023-02-21T07:32:10;101342.67;;;21.31;36.90
69239;BME280;56349;51.816;-0.026;2023-02-21T07:34:37;101343.94;;;21.30;36.94
69239;BME280;56349;51.816;-0.026;2023-02-21T07:37:03;101345.05;;;21.03;37.09
69239;BME280;56349;51.816;-0.026;2023-02-21T07:39:29;101344.35;;;21.06;37.28
69239;BME280;56349;51.816;-0.026;2023-02-21T07:42:00;101344.67;;;21.40;37.53
69239;BME280;56349;51.816;-0.026;2023-02-21T07:44:20;101342.22;;;21.53;37.67
69239;BME280;56349;51.816;-0.026;2023-02-21T07:46:47;101342.86;;;21.43;37.74
69239;BME280;56349;51.816;-0.026;2023-02-21T07:49:12;101343.36;;;21.45;37.76
69239;BME280;56349;51.816;-0.026;2023-02-21T07:51:37;101341.36;;;21.75;37.61
69239;BME280;56349;51.816;-0.026;2023-02-21T07:54:03;101344.30;;;22.09;37.41
69239;BME280;56349;51.816;-0.026;2023-02-21T07:56:28;101345.15;;;21.97;37.09
69239;BME280;56349;51.816;-0.026;2023-02-21T07:58:53;101348.79;;;22.33;36.71
69239;BME280;56349;51.816;-0.026;2023-02-21T08:01:21;101344.35;;;22.69;36.30
69239;BME280;56349;51.816;-0.026;2023-02-21T08:03:44;101349.57;;;23.08;35.89
69239;BME280;56349;51.816;-0.026;2023-02-21T08:06:11;101350.33;;;23.23;35.48
69239;BME280;56349;51.816;-0.026;2023-02-21T08:08:36;101350.89;;;23.57;35.07
69239;BME280;56349;51.816;-0.026;2023-02-21T08:11:02;101347.41;;;23.63;34.68
69239;BME280;56349;51.816;-0.026;2023-02-21T08:13:29;101348.26;;;23.94;34.32
69239;BME280;56349;51.816;-0.026;2023-02-21T08:15:54;101348.77;;;24.02;33.94
69239;BME280;56349;51.816;-0.026;2023-02-21T08:18:21;101343.61;;;24.31;33.61
69239;BME280;56349;51.816;-0.026;2023-02-21T08:20:44;101351.36;;;24.37;33.27
69239;BME280;56349;51.816;-0.026;2023-02-21T08:23:09;101352.04;;;24.67;32.91
69239;BME280;56349;51.816;-0.026;2023-02-21T08:25:36;101350.70;;;24.90;32.59
69239;BME280;56349;51.816;-0.026;2023-02-21T08:28:02;101347.97;;;25.12;32.33
69239;BME280;56349;51.816;-0.026;2023-02-21T08:30:28;101342.79;;;25.04;32.09
69239;BME280;56349;51.816;-0.026;2023-02-21T08:32:54;101339.88;;;25.49;31.85
69239;BME280;56349;51.816;-0.026;2023-02-21T08:35:20;101340.72;;;25.19;31.62
69239;BME280;56349;51.816;-0.026;2023-02-21T08:37:46;101340.72;;;25.40;31.37
69239;BME280;56349;51.816;-0.026;2023-02-21T08:40:12;101339.93;;;25.59;31.17
69239;BME280;56349;51.816;-0.026;2023-02-21T08:42:37;101338.71;;;25.76;30.98
69239;BME280;56349;51.816;-0.026;2023-02-21T08:45:04;101335.97;;;25.89;30.83
69239;BME280;56349;51.816;-0.026;2023-02-21T08:47:29;101338.80;;;26.05;30.61
69239;BME280;56349;51.816;-0.026;2023-02-21T08:49:55;101338.59;;;25.70;30.49
69239;BME280;56349;51.816;-0.026;2023-02-21T08:52:21;101337.31;;;26.09;30.41
69239;BME280;56349;51.816;-0.026;2023-02-21T08:54:47;101335.65;;;26.21;30.30
69239;BME280;56349;51.816;-0.026;2023-02-21T08:57:12;101336.69;;;26.08;30.18
69239;BME280;56349;51.816;-0.026;2023-02-21T08:59:39;101339.82;;;26.19;30.04
69239;BME280;56349;51.816;-0.026;2023-02-21T09:02:03;101334.45;;;26.30;29.90
69239;BME280;56349;51.816;-0.026;2023-02-21T09:04:29;101327.78;;;26.41;29.82
69239;BME280;56349;51.816;-0.026;2023-02-21T09:06:55;101323.53;;;26.51;29.78
69239;BME280;56349;51.816;-0.026;2023-02-21T09:09:21;101322.68;;;26.59;29.69
69239;BME280;56349;51.816;-0.026;2023-02-21T09:11:48;101320.24;;;26.67;29.54
69239;BME280;56349;51.816;-0.026;2023-02-21T09:14:13;101320.27;;;26.75;29.39
69239;BME280;56349;51.816;-0.026;2023-02-21T09:16:39;101319.42;;;26.82;29.25
69239;BME280;56349;51.816;-0.026;2023-02-21T09:19:04;101315.86;;;26.63;29.18
69239;BME280;56349;51.816;-0.026;2023-02-21T09:21:30;101313.59;;;26.87;29.13
69239;BME280;56349;51.816;-0.026;2023-02-21T09:23:56;101317.62;;;26.69;29.04
69239;BME280;56349;51.816;-0.026;2023-02-21T09:26:21;101317.33;;;26.71;28.89
69239;BME280;56349;51.816;-0.026;2023-02-21T09:28:47;101315.19;;;26.94;28.76
69239;BME280;56349;51.816;-0.026;2023-02-21T09:31:13;101317.15;;;26.92;28.67
69239;BME280;56349;51.816;-0.026;2023-02-21T09:33:39;101317.80;;;26.89;28.60
69239;BME280;56349;51.816;-0.026;2023-02-21T09:36:06;101319.39;;;26.85;28.57
69239;BME280;56349;51.816;-0.026;2023-02-21T09:38:31;101317.56;;;26.84;28.50
69239;BME280;56349;51.816;-0.026;2023-02-21T09:40:59;101316.03;;;26.62;28.42
69239;BME280;56349;51.816;-0.026;2023-02-21T09:43:30;101314.62;;;26.84;28.35
69239;BME280;56349;51.816;-0.026;2023-02-21T09:45:49;101314.30;;;26.85;28.27
69239;BME280;56349;51.816;-0.026;2023-02-21T09:48:15;101312.62;;;26.84;28.20
69239;BME280;56349;51.816;-0.026;2023-02-21T09:50:41;101313.81;;;26.62;28.14
69239;BME280;56349;51.816;-0.026;2023-02-21T09:53:04;101316.70;;;26.64;28.07
69239;BME280;56349;51.816;-0.026;2023-02-21T09:55:34;101316.90;;;26.90;27.93
69239;BME280;56349;51.816;-0.026;2023-02-21T09:57:55;101316.69;;;26.89;27.86
69239;BME280;56349;51.816;-0.026;2023-02-21T10:00:22;101314.13;;;26.85;27.80
69239;BME280;56349;51.816;-0.026;2023-02-21T10:02:54;101313.09;;;26.79;27.80
69239;BME280;56349;51.816;-0.026;2023-02-21T10:05:19;101312.09;;;26.55;27.79
69239;BME280;56349;51.816;-0.026;2023-02-21T10:07:41;101313.51;;;26.53;27.70
69239;BME280;56349;51.816;-0.026;2023-02-21T10:10:08;101312.59;;;26.71;27.61
69239;BME280;56349;51.816;-0.026;2023-02-21T10:12:30;101309.82;;;26.65;27.58
69239;BME280;56349;51.816;-0.026;2023-02-21T10:17:24;101304.23;;;26.60;27.56
69239;BME280;56349;51.816;-0.026;2023-02-21T10:19:49;101299.14;;;26.66;27.48
69239;BME280;56349;51.816;-0.026;2023-02-21T10:22:14;101298.00;;;26.41;27.50
69239;BME280;56349;51.816;-0.026;2023-02-21T10:24:36;101293.52;;;26.38;27.45
69239;BME280;56349;51.816;-0.026;2023-02-21T10:27:05;101293.60;;;26.34;27.42
69239;BME280;56349;51.816;-0.026;2023-02-21T10:29:36;101290.78;;;26.52;27.43
69239;BME280;56349;51.816;-0.026;2023-02-21T10:31:57;101293.83;;;26.28;27.43
69239;BME280;56349;51.816;-0.026;2023-02-21T10:34:22;101292.22;;;26.49;27.38
69239;BME280;56349;51.816;-0.026;2023-02-21T10:36:46;101293.82;;;26.24;27.35
69239;BME280;56349;51.816;-0.026;2023-02-21T10:39:16;101287.83;;;26.45;27.31
69239;BME280;56349;51.816;-0.026;2023-02-21T10:41:39;101288.22;;;26.21;27.28
69239;BME280;56349;51.816;-0.026;2023-02-21T10:44:08;101283.74;;;26.38;27.28
69239;BME280;56349;51.816;-0.026;2023-02-21T10:46:31;101284.71;;;26.35;27.29
69239;BME280;56349;51.816;-0.026;2023-02-21T10:49:17;101287.51;;;26.32;27.29
69239;BME280;56349;51.816;-0.026;2023-02-21T10:51:28;101289.77;;;26.30;27.27
69239;BME280;56349;51.816;-0.026;2023-02-21T10:53:46;101286.16;;;26.29;27.21
69239;BME280;56349;51.816;-0.026;2023-02-21T10:56:20;101282.26;;;26.47;27.20
69239;BME280;56349;51.816;-0.026;2023-02-21T10:58:36;101282.02;;;26.08;27.21
69239;BME280;56349;51.816;-0.026;2023-02-21T11:01:11;101280.08;;;25.85;27.27
69239;BME280;56349;51.816;-0.026;2023-02-21T11:03:28;101276.35;;;25.85;27.43
69239;BME280;56349;51.816;-0.026;2023-02-21T11:05:56;101273.03;;;25.58;27.56
69239;BME280;56349;51.816;-0.026;2023-02-21T11:10:45;101276.98;;;25.23;27.93
69239;BME280;56349;51.816;-0.026;2023-02-21T11:13:15;101275.25;;;24.92;28.13
69239;BME280;56349;51.816;-0.026;2023-02-21T11:15:37;101277.02;;;24.83;28.37
69239;BME280;56349;51.816;-0.026;2023-02-21T11:18:05;101273.54;;;24.81;28.63
69239;BME280;56349;51.816;-0.026;2023-02-21T11:20:28;101270.69;;;24.51;29.00
69239;BME280;56349;51.816;-0.026;2023-02-21T11:22:54;101270.73;;;24.28;29.23
69239;BME280;56349;51.816;-0.026;2023-02-21T11:25:23;101267.21;;;24.28;29.49
69239;BME280;56349;51.816;-0.026;2023-02-21T11:30:15;101266.07;;;23.82;29.95
69239;BME280;56349;51.816;-0.026;2023-02-21T11:32:37;101266.34;;;24.24;30.10
69239;BME280;56349;51.816;-0.026;2023-02-21T11:35:05;101268.38;;;24.06;30.15
69239;BME280;56349;51.816;-0.026;2023-02-21T11:37:27;101263.21;;;23.94;30.16
69239;BME280;56349;51.816;-0.026;2023-02-21T11:39:53;101258.44;;;24.29;30.14
69239;BME280;56349;51.816;-0.026;2023-02-21T11:42:26;101257.46;;;24.23;30.14
69239;BME280;56349;51.816;-0.026;2023-02-21T11:44:46;101253.18;;;24.41;30.14
69239;BME280;56349;51.816;-0.026;2023-02-21T11:47:14;101248.49;;;24.60;30.05
69239;BME280;56349;51.816;-0.026;2023-02-21T11:49:43;101249.23;;;24.56;29.92
69239;BME280;56349;51.816;-0.026;2023-02-21T11:52:07;101244.92;;;25.02;29.78
69239;BME280;56349;51.816;-0.026;2023-02-21T11:54:29;101237.23;;;24.72;29.70
69239;BME280;56349;51.816;-0.026;2023-02-21T11:57:00;101233.56;;;25.40;29.64
69239;BME280;56349;51.816;-0.026;2023-02-21T11:59:30;101231.64;;;25.11;29.55
69239;BME280;56349;51.816;-0.026;2023-02-21T12:01:53;101226.90;;;25.52;29.49
69239;BME280;56349;51.816;-0.026;2023-02-21T12:06:42;101217.50;;;25.61;29.51
69239;BME280;56349;51.816;-0.026;2023-02-21T12:09:07;101218.62;;;25.73;29.48
69239;BME280;56349;51.816;-0.026;2023-02-21T12:11:40;101215.22;;;25.62;29.39
69239;BME280;56349;51.816;-0.026;2023-02-21T12:14:07;101214.06;;;25.96;29.31
69239;BME280;56349;51.816;-0.026;2023-02-21T12:16:28;101206.48;;;26.08;29.27
69239;BME280;56349;51.816;-0.026;2023-02-21T12:18:57;101207.08;;;25.67;29.19
69239;BME280;56349;51.816;-0.026;2023-02-21T12:21:29;101200.03;;;26.24;29.09
69239;BME280;56349;51.816;-0.026;2023-02-21T12:23:47;101196.32;;;25.81;29.01
69239;BME280;56349;51.816;-0.026;2023-02-21T12:26:17;101196.01;;;25.89;28.90
69239;BME280;56349;51.816;-0.026;2023-02-21T12:28:42;101196.77;;;25.96;28.79
69239;BME280;56349;51.816;-0.026;2023-02-21T12:31:07;101192.40;;;26.31;28.72
69239;BME280;56349;51.816;-0.026;2023-02-21T12:33:31;101186.48;;;26.10;28.66
69239;BME280;56349;51.816;-0.026;2023-02-21T12:38:19;101176.20;;;26.06;28.50
69239;BME280;56349;51.816;-0.026;2023-02-21T12:40:44;101169.35;;;26.35;28.40
69239;BME280;56349;51.816;-0.026;2023-02-21T12:43:19;101167.42;;;26.38;28.44
69239;BME280;56349;51.816;-0.026;2023-02-21T12:45:42;101165.63;;;26.41;28.36
69239;BME280;56349;51.816;-0.026;2023-02-21T12:47:59;101157.06;;;26.22;28.29
69239;BME280;56349;51.816;-0.026;2023-02-21T12:50:24;101152.28;;;26.50;28.26
69239;BME280;56349;51.816;-0.026;2023-02-21T12:52:53;101144.42;;;26.58;28.14